Time;durP1;ratioP1;P1;durP2;ratioP2;P2;SDS_P1;SDS_P2;PMS_P1;PMS_P2;Temp;Humidity;BMP_temperature;BMP_pressure;BME280_temperature;BME280_humidity;BME280_pressure;Samples;Min_cycle;Max_cycle;Signal;HPM_P1;HPM_P2
2022/04/15 00:01:12;;;;;;;7.70;6.97;;;15.90;93.00;;;;;;5012386;28;20269;-56
2022/04/15 00:03:39;;;;;;;9.73;8.57;;;15.90;94.00;;;;;;5012044;28;20180;-58
2022/04/15 00:06:08;;;;;;;10.93;7.73;;;15.80;95.20;;;;;;5012397;28;20597;-57
2022/04/15 00:08:35;;;;;;;9.37;7.67;;;15.70;96.10;;;;;;5012361;28;20668;-56
2022/04/15 00:11:01;;;;;;;9.17;7.67;;;15.70;97.20;;;;;;5015315;28;20212;-58
2022/04/15 00:13:29;;;;;;;9.07;8.17;;;15.60;97.80;;;;;;5016328;28;20199;-58
2022/04/15 00:15:56;;;;;;;10.57;8.63;;;15.60;97.50;;;;;;5012544;28;20182;-57
2022/04/15 00:18:21;;;;;;;10.17;8.13;;;15.60;96.90;;;;;;5018958;28;20232;-58
2022/04/15 00:20:47;;;;;;;8.80;7.90;;;15.60;97.20;;;;;;5034407;28;20292;-58
2022/04/15 00:23:13;;;;;;;10.53;8.27;;;15.50;99.00;;;;;;5034041;28;20721;-57
2022/04/15 00:25:38;;;;;;;9.47;8.27;;;15.20;99.50;;;;;;5033531;28;20261;-56
2022/04/15 00:28:04;;;;;;;10.70;9.10;;;15.20;99.10;;;;;;5034149;28;20614;-57
2022/04/15 00:30:30;;;;;;;12.13;8.50;;;15.40;99.10;;;;;;5034522;28;20257;-55
2022/04/15 00:32:55;;;;;;;9.60;8.20;;;14.90;99.90;;;;;;5033653;28;20173;-57
2022/04/15 00:35:21;;;;;;;10.30;7.87;;;14.70;99.90;;;;;;5033954;28;20210;-56
2022/04/15 00:37:47;;;;;;;10.43;8.57;;;14.50;99.90;;;;;;5033826;28;20562;-58
2022/04/15 00:40:13;;;;;;;10.57;9.40;;;14.40;99.90;;;;;;5033737;28;20199;-55
2022/04/15 00:42:38;;;;;;;10.63;9.53;;;14.50;99.90;;;;;;5033387;28;20198;-57
2022/04/15 00:45:05;;;;;;;12.20;10.87;;;14.70;99.90;;;;;;5033810;28;20179;-56
2022/04/15 00:47:53;;;;;;;11.47;10.30;;;14.80;99.90;;;;;;5029224;28;20580;-55
2022/04/15 00:50:29;;;;;;;13.13;10.43;;;15.00;99.90;;;;;;5028380;28;20184;-53
2022/04/15 00:53:00;;;;;;;11.43;10.17;;;15.20;99.90;;;;;;5030387;28;20184;-57
2022/04/15 00:55:27;;;;;;;12.07;10.57;;;15.20;99.90;;;;;;5013858;28;20175;-56
2022/04/15 00:57:57;;;;;;;11.67;10.27;;;15.30;99.90;;;;;;5013717;28;20195;-55
2022/04/15 01:00:28;;;;;;;10.87;9.67;;;15.30;99.90;;;;;;5033347;28;20221;-58
2022/04/15 01:02:57;;;;;;;14.00;10.20;;;15.30;99.90;;;;;;5033045;28;20209;-55
2022/04/15 01:05:24;;;;;;;11.30;10.10;;;15.30;99.90;;;;;;5033265;28;20175;-57
2022/04/15 01:07:51;;;;;;;11.73;10.30;;;15.20;99.90;;;;;;5033281;28;20202;-58
2022/04/15 01:10:19;;;;;;;11.60;10.40;;;15.10;99.90;;;;;;5033274;28;20177;-56
2022/04/15 01:12:49;;;;;;;10.57;9.53;;;15.10;99.90;;;;;;5032821;28;20235;-57
2022/04/15 01:15:15;;;;;;;13.30;9.93;;;15.00;99.90;;;;;;5033156;28;20556;-57
2022/04/15 01:17:41;;;;;;;10.40;9.40;;;14.90;99.90;;;;;;5032855;28;20207;-55
2022/04/15 01:20:10;;;;;;;10.80;9.70;;;14.80;99.90;;;;;;5032989;28;20225;-56
2022/04/15 01:22:55;;;;;;;10.33;9.17;;;14.80;99.90;;;;;;5032857;28;20179;-57
2022/04/15 01:25:20;;;;;;;10.17;9.17;;;14.70;99.90;;;;;;5033127;28;20237;-54
2022/04/15 01:27:47;;;;;;;11.87;9.40;;;14.80;99.90;;;;;;5032931;28;20203;-57
2022/04/15 01:30:15;;;;;;;10.40;9.40;;;14.70;99.90;;;;;;5032774;28;20178;-57
2022/04/15 01:32:42;;;;;;;11.00;9.90;;;14.70;99.90;;;;;;5032504;28;20258;-58
2022/04/15 01:35:10;;;;;;;12.40;10.47;;;14.70;99.90;;;;;;5032813;28;20185;-55
2022/04/15 01:37:37;;;;;;;13.13;11.93;;;14.80;99.90;;;;;;5031835;28;20225;-54
2022/04/15 01:40:07;;;;;;;11.90;10.70;;;14.70;99.90;;;;;;5032606;28;20201;-57
2022/04/15 01:42:34;;;;;;;13.23;11.37;;;14.60;99.90;;;;;;5032247;28;20216;-57
2022/04/15 01:45:00;;;;;;;12.77;11.20;;;14.70;99.90;;;;;;5032554;28;20176;-56
2022/04/15 01:47:25;;;;;;;13.33;11.93;;;14.50;99.90;;;;;;5032573;28;20248;-58
2022/04/15 01:49:51;;;;;;;14.37;12.87;;;14.50;99.90;;;;;;5047876;28;20231;-56
2022/04/15 01:52:17;;;;;;;12.97;11.67;;;14.40;99.90;;;;;;5032299;28;20186;-57
2022/04/15 01:54:42;;;;;;;14.27;12.40;;;14.40;99.90;;;;;;5032423;28;20238;-57
2022/04/15 01:57:08;;;;;;;14.13;12.80;;;14.40;99.90;;;;;;5032411;28;20195;-58
2022/04/15 01:59:33;;;;;;;12.90;11.60;;;14.40;99.90;;;;;;5032155;28;20690;-58
2022/04/15 02:01:59;;;;;;;13.73;12.37;;;14.40;99.90;;;;;;5032265;28;20647;-58
2022/04/15 02:04:26;;;;;;;13.67;12.23;;;14.20;99.90;;;;;;5032092;28;20208;-57
2022/04/15 02:06:52;;;;;;;13.80;12.50;;;14.20;99.90;;;;;;5032178;28;20247;-58
2022/04/15 02:09:18;;;;;;;12.40;11.30;;;14.10;99.90;;;;;;5032246;28;20174;-57
2022/04/15 02:11:44;;;;;;;14.60;12.80;;;14.20;99.90;;;;;;5032180;28;20184;-57
2022/04/15 02:14:10;;;;;;;13.07;11.77;;;14.20;99.90;;;;;;5031719;28;20662;-58
2022/04/15 02:16:36;;;;;;;13.27;11.90;;;15.30;99.90;;;;;;5032064;28;20175;-58
2022/04/15 02:19:02;;;;;;;13.30;12.00;;;14.40;99.90;;;;;;5032100;28;20197;-57
2022/04/15 02:21:27;;;;;;;13.33;12.03;;;14.40;99.90;;;;;;5031985;28;20220;-57
2022/04/15 02:23:53;;;;;;;13.23;11.93;;;14.50;99.90;;;;;;5031691;28;20175;-57
2022/04/15 02:26:18;;;;;;;12.90;11.70;;;14.50;99.90;;;;;;5031979;28;20185;-57
2022/04/15 02:28:44;;;;;;;12.83;11.63;;;14.60;99.90;;;;;;5031805;28;20194;-56
2022/04/15 02:31:09;;;;;;;13.73;12.27;;;14.70;99.90;;;;;;5047331;28;20182;-54
2022/04/15 02:33:35;;;;;;;12.80;11.47;;;14.70;99.90;;;;;;5031601;28;20185;-55
2022/04/15 02:36:00;;;;;;;15.00;13.57;;;14.70;99.90;;;;;;5031923;28;20200;-55
2022/04/15 02:38:26;;;;;;;13.97;12.57;;;14.70;99.90;;;;;;5031843;28;20201;-56
2022/04/15 02:40:51;;;;;;;14.37;13.00;;;14.70;99.90;;;;;;5031796;28;20204;-56
2022/04/15 02:43:18;;;;;;;13.63;12.20;;;14.70;99.90;;;;;;5031382;28;20195;-58
2022/04/15 02:45:44;;;;;;;14.23;12.83;;;14.70;99.90;;;;;;5031819;28;20170;-56
2022/04/15 02:48:10;;;;;;;14.37;12.87;;;14.80;99.90;;;;;;5033677;28;20197;-57
2022/04/15 02:50:36;;;;;;;14.07;12.70;;;14.80;99.90;;;;;;5035858;28;20178;-56
2022/04/15 02:53:01;;;;;;;14.70;13.13;;;14.70;99.90;;;;;;5035539;28;20169;-57
2022/04/15 02:55:27;;;;;;;15.50;13.73;;;14.70;99.90;;;;;;5035803;28;20714;-54
2022/04/15 02:57:53;;;;;;;15.17;13.67;;;14.60;99.90;;;;;;5035600;28;20203;-57
2022/04/15 03:00:19;;;;;;;17.40;15.47;;;14.30;99.90;;;;;;5035654;28;20202;-54
2022/04/15 03:02:45;;;;;;;14.97;13.47;;;14.00;99.90;;;;;;5035598;28;20195;-57
2022/04/15 03:05:10;;;;;;;17.73;15.93;;;13.90;99.90;;;;;;5035998;28;20210;-57
2022/04/15 03:07:37;;;;;;;16.23;14.33;;;13.90;99.90;;;;;;5035677;28;20184;-57
2022/04/15 03:10:04;;;;;;;17.77;15.83;;;14.00;99.90;;;;;;5035755;28;20176;-55
2022/04/15 03:12:36;;;;;;;16.67;15.07;;;14.00;99.90;;;;;;5034999;28;20260;-56
2022/04/15 03:15:06;;;;;;;16.47;14.87;;;13.90;99.90;;;;;;5035449;28;20176;-55
2022/04/15 03:17:33;;;;;;;14.70;13.40;;;13.90;99.90;;;;;;5035178;28;20256;-53
2022/04/15 03:20:02;;;;;;;16.67;15.07;;;14.00;99.90;;;;;;5035309;28;20196;-57
2022/04/15 03:22:28;;;;;;;17.87;16.07;;;14.20;99.90;;;;;;5034973;28;20165;-56
2022/04/15 03:24:54;;;;;;;17.03;15.47;;;14.20;99.90;;;;;;5035290;28;20175;-56
2022/04/15 03:27:19;;;;;;;16.30;14.70;;;14.10;99.90;;;;;;5035166;28;20599;-55
2022/04/15 03:29:45;;;;;;;15.70;14.20;;;14.00;99.90;;;;;;5035172;28;20180;-55
2022/04/15 03:32:11;;;;;;;15.43;13.90;;;14.00;99.90;;;;;;5035088;28;20169;-56
2022/04/15 03:34:39;;;;;;;14.97;13.47;;;14.10;99.90;;;;;;5035027;28;20186;-57
2022/04/15 03:37:05;;;;;;;16.20;14.57;;;15.30;99.90;;;;;;5035000;28;20241;-54
2022/04/15 03:39:31;;;;;;;15.93;14.43;;;14.00;99.90;;;;;;5034899;28;20208;-53
2022/04/15 03:41:56;;;;;;;16.17;14.53;;;13.90;99.90;;;;;;5034845;28;20163;-56
2022/04/15 03:44:22;;;;;;;17.30;15.60;;;13.80;99.90;;;;;;5034731;28;20177;-58
2022/04/15 03:46:48;;;;;;;18.07;16.27;;;13.60;99.90;;;;;;5035101;28;20689;-58
2022/04/15 03:49:13;;;;;;;17.50;15.70;;;13.50;99.90;;;;;;5034836;28;20260;-55
2022/04/15 03:51:39;;;;;;;16.73;15.13;;;13.30;99.90;;;;;;5034883;28;20191;-54
2022/04/15 03:54:04;;;;;;;18.20;16.50;;;13.20;99.90;;;;;;5034381;28;20165;-55
2022/04/15 03:56:30;;;;;;;21.40;19.30;;;13.10;99.90;;;;;;5034581;28;20169;-55
2022/04/15 03:58:56;;;;;;;20.73;18.80;;;12.80;99.90;;;;;;5033760;28;20168;-54
2022/04/15 04:01:22;;;;;;;22.27;18.27;;;12.80;99.90;;;;;;5034396;28;20703;-55
2022/04/15 04:03:47;;;;;;;19.30;17.30;;;12.80;99.90;;;;;;5034222;28;20218;-55
2022/04/15 04:06:13;;;;;;;19.37;17.47;;;12.80;99.90;;;;;;5034470;28;20638;-52
2022/04/15 04:08:39;;;;;;;18.50;16.70;;;12.90;99.90;;;;;;5034327;28;20195;-54
2022/04/15 04:11:04;;;;;;;19.80;17.87;;;13.00;99.90;;;;;;5034397;28;20172;-56
2022/04/15 04:13:30;;;;;;;19.13;17.13;;;13.20;99.90;;;;;;5034028;28;20176;-56
2022/04/15 04:15:55;;;;;;;18.70;16.90;;;13.30;99.90;;;;;;5034339;28;20646;-56
2022/04/15 04:18:21;;;;;;;19.37;17.57;;;13.40;99.90;;;;;;5034318;28;20261;-52
2022/04/15 04:20:48;;;;;;;20.60;18.60;;;13.40;99.90;;;;;;5034175;28;20196;-54
2022/04/15 04:23:14;;;;;;;19.97;17.97;;;13.40;99.90;;;;;;5033830;28;20171;-56
2022/04/15 04:25:39;;;;;;;20.03;18.03;;;13.30;99.90;;;;;;5034198;28;20160;-57
2022/04/15 04:28:05;;;;;;;20.33;18.43;;;13.30;99.90;;;;;;5035367;28;20194;-52
2022/04/15 04:30:30;;;;;;;21.13;19.17;;;13.20;99.90;;;;;;5034399;28;20187;-56
2022/04/15 04:32:59;;;;;;;20.50;18.50;;;13.00;99.90;;;;;;5033745;28;20200;-55
2022/04/15 04:35:24;;;;;;;23.33;21.13;;;13.00;99.90;;;;;;5034047;28;20176;-55
2022/04/15 04:37:50;;;;;;;21.20;19.10;;;13.00;99.90;;;;;;5033773;28;20194;-56
2022/04/15 04:40:16;;;;;;;19.60;17.63;;;13.20;99.90;;;;;;5049421;28;20204;-55
2022/04/15 04:42:42;;;;;;;21.27;19.17;;;13.30;99.90;;;;;;5033623;28;20175;-54
2022/04/15 04:45:10;;;;;;;20.27;18.37;;;13.50;99.90;;;;;;5033775;28;20175;-57
2022/04/15 04:47:37;;;;;;;21.17;19.03;;;13.60;99.90;;;;;;5033751;28;20215;-56
2022/04/15 04:50:04;;;;;;;23.87;21.67;;;13.70;99.90;;;;;;5033710;28;20263;-52
2022/04/15 04:52:29;;;;;;;21.27;19.20;;;13.80;99.90;;;;;;5033201;28;20172;-56
2022/04/15 04:54:55;;;;;;;20.87;19.03;;;13.80;99.90;;;;;;5033670;28;20539;-55
2022/04/15 04:57:21;;;;;;;22.73;20.43;;;13.90;99.90;;;;;;5033416;28;20219;-57
2022/04/15 04:59:46;;;;;;;24.80;22.40;;;13.90;99.90;;;;;;5033589;28;20603;-56
2022/04/15 05:02:12;;;;;;;22.33;20.23;;;13.90;99.90;;;;;;5033297;28;20180;-57
2022/04/15 05:04:39;;;;;;;20.43;18.40;;;13.90;99.90;;;;;;5033291;28;20169;-54
2022/04/15 05:07:05;;;;;;;20.33;18.33;;;13.90;99.90;;;;;;5033186;28;20196;-57
2022/04/15 05:09:30;;;;;;;18.97;17.13;;;13.80;99.90;;;;;;5033512;28;20179;-56
2022/04/15 05:11:56;;;;;;;19.60;17.77;;;13.80;99.90;;;;;;5032968;28;20172;-56
2022/04/15 05:14:21;;;;;;;20.27;18.33;;;13.80;99.90;;;;;;5033020;28;20168;-56
2022/04/15 05:16:47;;;;;;;18.07;16.37;;;14.10;99.90;;;;;;5033149;28;20166;-53
2022/04/15 05:19:13;;;;;;;20.97;19.00;;;14.00;99.90;;;;;;5033118;28;20190;-57
2022/04/15 05:21:39;;;;;;;18.70;16.93;;;14.10;99.90;;;;;;5033005;28;20207;-56
2022/04/15 05:24:09;;;;;;;20.70;18.50;;;14.20;99.90;;;;;;5032767;28;20216;-56
2022/04/15 05:26:36;;;;;;;19.13;17.33;;;14.40;99.90;;;;;;5032936;28;20173;-54
2022/04/15 05:29:02;;;;;;;19.53;17.73;;;14.40;99.90;;;;;;5032981;28;20194;-56
2022/04/15 05:31:28;;;;;;;20.37;18.43;;;15.60;99.90;;;;;;5032960;28;20172;-55
2022/04/15 05:33:53;;;;;;;20.60;18.60;;;14.50;99.90;;;;;;5032532;28;20234;-55
2022/04/15 05:36:19;;;;;;;21.97;19.93;;;14.50;99.90;;;;;;5032787;28;20179;-56
2022/04/15 05:38:44;;;;;;;20.37;18.37;;;14.50;99.90;;;;;;5032764;28;20232;-57
2022/04/15 05:41:10;;;;;;;19.53;17.77;;;14.50;99.90;;;;;;5047970;28;20294;-55
2022/04/15 05:43:37;;;;;;;19.13;17.43;;;14.60;99.90;;;;;;5032348;28;20218;-57
2022/04/15 05:46:03;;;;;;;19.13;17.43;;;14.60;99.90;;;;;;5032658;28;20223;-56
2022/04/15 05:48:29;;;;;;;20.27;18.37;;;14.70;99.90;;;;;;5032510;28;20196;-56
2022/04/15 05:50:54;;;;;;;18.13;16.43;;;14.60;99.90;;;;;;5032528;28;20175;-57
2022/04/15 05:53:20;;;;;;;17.40;15.80;;;14.80;99.90;;;;;;5032395;28;20176;-56
2022/04/15 05:55:45;;;;;;;18.67;16.97;;;14.90;99.90;;;;;;5032599;28;20182;-57
2022/04/15 05:58:11;;;;;;;17.53;15.93;;;15.10;99.90;;;;;;5032333;28;20198;-56
2022/04/15 06:00:37;;;;;;;19.30;17.47;;;15.20;99.90;;;;;;5032536;28;20198;-53
2022/04/15 06:03:03;;;;;;;18.37;16.73;;;15.30;99.90;;;;;;5031991;28;20217;-57
2022/04/15 06:05:28;;;;;;;19.47;17.50;;;15.20;99.90;;;;;;5032233;28;20187;-57
2022/04/15 06:07:54;;;;;;;18.37;16.57;;;15.10;99.90;;;;;;5032199;28;20252;-53
2022/04/15 06:10:20;;;;;;;18.33;16.53;;;15.00;99.90;;;;;;5032145;28;20192;-54
2022/04/15 06:12:54;;;;;;;21.20;19.10;;;15.00;99.90;;;;;;5031871;28;20176;-58
2022/04/15 06:15:23;;;;;;;18.13;16.53;;;15.00;99.90;;;;;;5032174;28;20182;-57
2022/04/15 06:17:50;;;;;;;18.63;16.83;;;15.00;99.90;;;;;;5029526;28;20212;-54
2022/04/15 06:20:17;;;;;;;19.83;17.90;;;14.90;99.90;;;;;;5023262;28;20200;-56
2022/04/15 06:22:44;;;;;;;18.17;16.47;;;14.70;99.90;;;;;;5011401;28;20200;-57
2022/04/15 06:25:10;;;;;;;19.67;17.87;;;14.60;99.90;;;;;;5025922;28;20182;-57
2022/04/15 06:27:36;;;;;;;20.00;17.97;;;14.60;99.90;;;;;;5031877;28;20261;-55
2022/04/15 06:30:02;;;;;;;19.73;17.80;;;14.50;99.90;;;;;;5027694;28;20194;-54
2022/04/15 06:32:27;;;;;;;18.33;16.53;;;14.50;99.90;;;;;;5014500;28;20183;-54
2022/04/15 06:34:53;;;;;;;17.63;16.03;;;14.80;99.90;;;;;;5022974;28;20185;-54
2022/04/15 06:37:18;;;;;;;19.07;17.20;;;14.90;99.90;;;;;;5011868;28;20198;-57
2022/04/15 06:39:50;;;;;;;18.37;16.67;;;15.10;99.90;;;;;;5038705;28;20195;-53
2022/04/15 06:42:20;;;;;;;18.87;17.13;;;15.30;99.90;;;;;;5034769;28;20176;-56
2022/04/15 06:44:46;;;;;;;18.30;16.50;;;;;;;;;;5047057;28;20595;-52
2022/04/15 06:47:11;;;;;;;18.70;17.00;;;15.20;99.90;;;;;;5051495;28;20195;-54
2022/04/15 06:49:37;;;;;;;20.50;18.57;;;15.00;99.90;;;;;;5051814;28;20217;-55
2022/04/15 06:52:03;;;;;;;18.27;16.63;;;15.00;99.90;;;;;;5036509;28;20190;-56
2022/04/15 06:54:28;;;;;;;18.90;17.17;;;15.00;99.90;;;;;;5031947;28;20172;-55
2022/04/15 06:56:54;;;;;;;19.07;17.20;;;15.20;99.90;;;;;;5040250;28;20253;-57
2022/04/15 06:59:19;;;;;;;17.90;16.10;;;15.30;99.90;;;;;;5051397;28;20246;-54
2022/04/15 07:01:46;;;;;;;17.67;16.13;;;15.30;99.90;;;;;;5050194;28;20245;-55
2022/04/15 07:04:12;;;;;;;19.07;17.07;;;15.30;99.90;;;;;;5051309;28;20175;-52
2022/04/15 07:06:37;;;;;;;18.47;16.87;;;15.40;99.90;;;;;;5051441;28;20181;-57
2022/04/15 07:09:03;;;;;;;18.70;16.90;;;15.50;99.90;;;;;;5051355;28;20644;-56
2022/04/15 07:11:28;;;;;;;18.37;16.77;;;15.50;99.90;;;;;;5051506;28;20171;-57
2022/04/15 07:13:54;;;;;;;17.40;15.80;;;15.50;99.90;;;;;;5051017;28;20175;-57
2022/04/15 07:16:19;;;;;;;18.57;16.77;;;15.60;99.90;;;;;;5051430;28;20229;-54
2022/04/15 07:18:45;;;;;;;17.37;15.83;;;15.80;99.90;;;;;;5051229;28;20568;-55
2022/04/15 07:21:11;;;;;;;16.23;14.80;;;15.90;99.90;;;;;;5051266;28;20207;-53
2022/04/15 07:23:37;;;;;;;14.80;13.43;;;15.90;99.90;;;;;;5028396;28;20181;-54
2022/04/15 07:26:03;;;;;;;15.87;14.47;;;16.10;99.90;;;;;;5025957;28;20295;-55
2022/04/15 07:28:28;;;;;;;14.00;12.77;;;16.30;99.90;;;;;;5015155;28;20208;-52
2022/04/15 07:30:54;;;;;;;13.67;12.47;;;16.50;99.90;;;;;;5020084;28;20177;-52
2022/04/15 07:33:20;;;;;;;14.63;13.33;;;16.60;99.90;;;;;;5011760;28;20177;-55
2022/04/15 07:35:46;;;;;;;14.83;13.53;;;16.70;99.90;;;;;;5032416;28;20172;-54
2022/04/15 07:38:11;;;;;;;16.10;14.60;;;16.50;99.90;;;;;;5034343;28;20207;-51
2022/04/15 07:40:37;;;;;;;16.20;14.70;;;16.30;99.90;;;;;;5048461;28;20195;-55
2022/04/15 07:43:02;;;;;;;15.20;13.67;;;15.90;99.90;;;;;;5046323;28;20184;-55
2022/04/15 07:45:28;;;;;;;15.03;13.70;;;15.60;99.90;;;;;;5022477;28;20213;-53
2022/04/15 07:47:54;;;;;;;15.73;14.33;;;15.30;99.90;;;;;;5020872;28;20207;-56
2022/04/15 07:50:25;;;;;;;15.80;14.40;;;15.30;99.90;;;;;;5016213;28;20250;-56
2022/04/15 07:52:55;;;;;;;14.73;13.37;;;15.10;99.90;;;;;;5015270;28;20204;-54
2022/04/15 07:55:20;;;;;;;13.93;12.73;;;15.00;99.90;;;;;;5015762;28;20523;-55
2022/04/15 07:57:46;;;;;;;14.60;13.20;;;15.10;99.90;;;;;;5014676;28;20255;-54
2022/04/15 08:00:12;;;;;;;14.63;13.23;;;15.20;99.90;;;;;;5014794;28;20720;-55
2022/04/15 08:02:37;;;;;;;14.13;12.83;;;15.30;99.90;;;;;;5014301;28;20309;-52
2022/04/15 08:05:04;;;;;;;14.17;12.70;;;15.30;99.90;;;;;;5014765;28;20196;-51
2022/04/15 08:07:29;;;;;;;13.57;12.37;;;15.30;99.90;;;;;;5014421;28;20192;-53
2022/04/15 08:09:55;;;;;;;13.97;12.63;;;15.40;99.90;;;;;;5014692;28;20189;-55
2022/04/15 08:12:20;;;;;;;13.53;12.27;;;16.10;99.90;;;;;;5014049;28;20181;-53
2022/04/15 08:14:46;;;;;;;13.47;12.00;;;15.30;99.90;;;;;;5014455;28;20188;-51
2022/04/15 08:17:12;;;;;;;14.07;12.67;;;15.30;99.90;;;;;;5014268;28;20192;-53
2022/04/15 08:19:37;;;;;;;12.80;11.60;;;15.40;99.90;;;;;;5014211;28;20267;-55
2022/04/15 08:22:03;;;;;;;11.57;10.47;;;15.70;99.90;;;;;;5014143;28;20540;-52
2022/04/15 08:24:29;;;;;;;11.53;10.33;;;15.90;99.90;;;;;;5014071;28;20264;-54
2022/04/15 08:26:56;;;;;;;11.30;10.27;;;16.20;99.90;;;;;;5014042;28;20635;-56
2022/04/15 08:29:22;;;;;;;12.40;11.30;;;16.60;99.90;;;;;;5014078;28;20168;-49
2022/04/15 08:31:47;;;;;;;12.23;11.00;;;16.80;99.90;;;;;;5014248;28;20239;-55
2022/04/15 08:34:13;;;;;;;11.77;10.47;;;16.90;99.90;;;;;;5013868;28;20184;-51
2022/04/15 08:36:38;;;;;;;10.20;9.30;;;17.20;99.90;;;;;;5014030;28;20213;-53
2022/04/15 08:39:05;;;;;;;10.60;9.60;;;17.10;99.90;;;;;;5014016;28;20192;-53
2022/04/15 08:41:37;;;;;;;10.30;9.40;;;17.10;99.90;;;;;;5014026;28;20208;-57
2022/04/15 08:44:05;;;;;;;9.93;9.03;;;17.20;99.90;;;;;;5013802;28;20179;-56
2022/04/15 08:46:31;;;;;;;10.67;9.67;;;17.30;99.90;;;;;;5013539;28;20621;-55
2022/04/15 08:49:00;;;;;;;10.27;9.30;;;17.30;99.90;;;;;;5013940;28;20188;-53
2022/04/15 08:51:26;;;;;;;10.20;9.30;;;17.40;99.90;;;;;;5013830;28;20184;-52
2022/04/15 08:53:54;;;;;;;9.80;8.80;;;17.40;99.90;;;;;;5013540;28;20588;-55
2022/04/15 08:56:22;;;;;;;10.07;9.17;;;17.40;99.90;;;;;;5013584;28;20180;-51
2022/04/15 08:58:48;;;;;;;10.23;9.23;;;17.60;99.90;;;;;;5013464;28;20204;-53
2022/04/15 09:01:14;;;;;;;9.83;8.90;;;17.80;99.90;;;;;;5013444;28;20207;-51
2022/04/15 09:03:40;;;;;;;9.07;8.17;;;18.00;99.90;;;;;;5013239;28;20201;-53
2022/04/15 09:06:18;;;;;;;12.80;10.03;;;17.70;99.90;;;;;;5013401;28;20196;-54
2022/04/15 09:09:04;;;;;;;9.90;8.93;;;17.40;99.90;;;;;;5013346;28;20191;-53
2022/04/15 09:11:35;;;;;;;10.03;9.03;;;17.60;99.90;;;;;;5013457;28;20173;-52
2022/04/15 09:14:03;;;;;;;10.47;9.47;;;17.70;99.90;;;;;;5013244;28;20205;-55
2022/04/15 09:16:30;;;;;;;10.13;9.13;;;17.40;99.90;;;;;;5013346;28;20175;-57
2022/04/15 09:18:56;;;;;;;9.70;8.80;;;17.10;99.90;;;;;;5013251;28;20187;-56
2022/04/15 09:21:24;;;;;;;10.63;9.63;;;17.20;99.90;;;;;;5013094;28;20245;-52
2022/04/15 09:23:52;;;;;;;10.50;9.50;;;17.40;99.90;;;;;;5012770;28;20180;-51
2022/04/15 09:26:20;;;;;;;10.17;9.33;;;17.60;99.90;;;;;;5012999;28;20185;-52
2022/04/15 09:28:47;;;;;;;9.23;8.43;;;17.70;99.90;;;;;;5013003;28;20274;-55
2022/04/15 09:31:14;;;;;;;9.90;8.93;;;17.60;99.90;;;;;;5012993;28;20173;-54
2022/04/15 09:34:01;;;;;;;9.73;8.83;;;17.30;99.90;;;;;;5012437;28;20175;-54
2022/04/15 09:36:36;;;;;;;9.33;8.43;;;17.30;99.90;;;;;;5012983;28;20180;-53
2022/04/15 09:39:14;;;;;;;9.20;8.40;;;17.20;99.90;;;;;;5012876;28;20176;-54
2022/04/15 09:41:42;;;;;;;8.23;7.43;;;17.20;99.90;;;;;;5012716;28;20210;-53
2022/04/15 09:44:12;;;;;;;9.40;8.60;;;17.40;99.90;;;;;;5012394;28;20204;-55
2022/04/15 09:46:46;;;;;;;9.43;8.53;;;17.50;99.90;;;;;;5012789;28;20249;-53
2022/04/15 09:49:13;;;;;;;9.27;8.37;;;17.60;99.90;;;;;;5012819;28;20169;-54
2022/04/15 09:51:51;;;;;;;8.20;7.50;;;17.80;99.90;;;;;;5012728;28;20189;-51
2022/04/15 09:54:30;;;;;;;9.97;8.90;;;17.90;99.90;;;;;;5012510;28;20550;-52
2022/04/15 09:56:57;;;;;;;8.87;7.97;;;17.80;99.90;;;;;;5011912;28;20271;-53
2022/04/15 09:59:25;;;;;;;8.30;7.60;;;17.70;99.90;;;;;;5012625;28;20184;-53
2022/04/15 10:01:59;;;;;;;7.80;7.10;;;17.60;99.90;;;;;;5012579;28;20189;-52
2022/04/15 10:04:26;;;;;;;8.77;7.53;;;17.70;99.90;;;;;;5012281;28;20169;-56
2022/04/15 10:06:53;;;;;;;7.83;7.13;;;17.90;99.90;;;;;;5012434;28;20219;-56
2022/04/15 10:09:19;;;;;;;7.77;6.97;;;18.30;99.90;;;;;;5012523;28;20173;-56
2022/04/15 10:11:46;;;;;;;8.00;7.20;;;18.40;99.90;;;;;;5012589;28;20204;-56
2022/04/15 10:14:14;;;;;;;8.00;7.30;;;18.60;99.90;;;;;;5012168;28;20188;-54
2022/04/15 10:16:42;;;;;;;7.63;6.60;;;18.60;99.90;;;;;;5012396;28;20172;-53
2022/04/15 10:19:08;;;;;;;7.30;6.60;;;18.80;99.90;;;;;;5012255;28;20198;-52
2022/04/15 10:21:37;;;;;;;7.87;6.60;;;18.70;99.90;;;;;;5012040;28;20212;-53
2022/04/15 10:24:04;;;;;;;8.40;7.43;;;18.70;99.90;;;;;;5012093;28;20173;-53
2022/04/15 10:26:40;;;;;;;9.83;7.33;;;18.90;99.90;;;;;;5012184;28;20175;-52
2022/04/15 10:29:06;;;;;;;7.17;6.47;;;19.10;99.90;;;;;;5037429;23;20219;-53
2022/04/15 10:31:44;;;;;;;7.20;6.50;;;19.00;99.90;;;;;;5031489;28;20172;-54
2022/04/15 10:34:12;;;;;;;7.07;6.40;;;18.90;99.90;;;;;;5031038;28;20711;-54
2022/04/15 10:36:38;;;;;;;7.33;6.60;;;19.00;99.90;;;;;;5032021;28;20260;-56
2022/04/15 10:39:07;;;;;;;6.30;5.70;;;18.90;99.90;;;;;;5031459;28;20282;-54
2022/04/15 10:41:41;;;;;;;6.57;5.97;;;19.00;99.90;;;;;;5030728;28;20266;-51
2022/04/15 10:44:11;;;;;;;8.00;6.43;;;19.30;99.90;;;;;;5031230;28;20164;-54
2022/04/15 10:46:37;;;;;;;8.03;6.63;;;19.50;99.90;;;;;;5031650;28;20215;-52
2022/04/15 10:49:19;;;;;;;7.13;6.53;;;19.80;99.90;;;;;;5031481;28;20188;-55
2022/04/15 10:51:45;;;;;;;6.53;5.87;;;19.80;99.90;;;;;;5031464;28;20183;-54
2022/04/15 10:54:30;;;;;;;10.47;6.63;;;19.50;99.90;;;;;;5013595;28;20275;-56
2022/04/15 10:57:01;;;;;;;7.60;6.90;;;19.50;99.90;;;;;;5031545;28;20530;-56
2022/04/15 11:02:18;;;;;;;7.57;6.87;;;19.30;99.90;;;;;;5031257;28;20222;-53
2022/04/15 11:04:51;;;;;;;8.07;7.27;;;19.30;99.90;;;;;;5031413;28;20172;-52
2022/04/15 11:07:28;;;;;;;7.97;7.23;;;19.30;99.90;;;;;;5031378;28;20172;-57
2022/04/15 11:09:55;;;;;;;7.47;6.77;;;19.10;99.90;;;;;;5034688;28;20196;-56
2022/04/15 11:12:42;;;;;;;7.67;6.97;;;19.40;99.90;;;;;;5034862;28;20214;-54
2022/04/15 11:15:08;;;;;;;8.70;7.77;;;19.50;99.90;;;;;;5035347;28;20164;-55
2022/04/15 11:17:45;;;;;;;7.77;6.97;;;19.60;99.90;;;;;;5035143;28;20168;-54
2022/04/15 11:20:12;;;;;;;6.30;5.70;;;19.70;99.90;;;;;;5035127;28;20676;-55
2022/04/15 11:22:41;;;;;;;8.03;7.23;;;20.10;99.90;;;;;;5034584;28;20164;-55
2022/04/15 11:25:09;;;;;;;7.63;6.82;;;20.50;99.90;;;;;;5035196;28;20169;-54
2022/04/15 11:27:38;;;;;;;8.32;7.43;;;20.60;99.90;;;;;;5017098;28;20716;-57
2022/04/15 11:30:09;;;;;;;8.10;7.32;;;20.60;99.90;;;;;;5034877;28;20204;-57
2022/04/15 11:32:45;;;;;;;7.47;6.85;;;20.70;99.90;;;;;;5016629;28;20182;-53
2022/04/15 11:35:10;;;;;;;7.97;7.28;;;21.00;99.90;;;;;;5035150;28;20257;-52
2022/04/15 11:37:38;;;;;;;7.63;6.93;;;21.00;99.80;;;;;;5034642;28;20307;-57
2022/04/15 11:40:05;;;;;;;6.68;6.07;;;20.40;99.50;;;;;;5034580;28;20202;-57
2022/04/15 11:42:32;;;;;;;6.85;6.25;;;20.20;99.80;;;;;;5034389;28;20261;-55
2022/04/15 11:44:57;;;;;;;6.30;5.70;;;20.60;99.10;;;;;;5034888;28;20166;-56
2022/04/15 11:47:26;;;;;;;6.18;5.57;;;21.00;99.90;;;;;;5034472;28;20238;-55
2022/04/15 11:49:52;;;;;;;6.18;5.57;;;21.00;98.40;;;;;;5034278;28;20191;-57
2022/04/15 11:52:26;;;;;;;4.88;4.40;;;21.10;97.30;;;;;;5034259;28;20519;-50
2022/04/15 11:54:53;;;;;;;4.72;4.32;;;21.10;97.30;;;;;;5034213;28;20182;-56
2022/04/15 11:57:19;;;;;;;6.50;5.82;;;21.10;96.90;;;;;;5034415;28;20194;-53
2022/04/15 11:59:46;;;;;;;5.38;4.97;;;21.20;96.70;;;;;;5034096;28;20187;-55
2022/04/15 12:02:14;;;;;;;7.93;5.63;;;21.50;97.50;;;;;;5034392;28;20176;-56
2022/04/15 12:04:56;;;;;;;5.78;5.18;;;21.90;96.10;;;;;;5034303;28;20174;-56
2022/04/15 12:07:23;;;;;;;5.90;5.40;;;22.00;96.80;;;;;;5034220;28;20176;-52
2022/04/15 12:09:51;;;;;;;5.95;5.45;;;21.70;96.00;;;;;;5033713;28;20188;-51
2022/04/15 12:12:17;;;;;;;6.38;5.88;;;21.00;96.80;;;;;;5033626;28;20195;-52
2022/04/15 12:14:43;;;;;;;5.90;5.40;;;20.30;97.70;;;;;;5033943;28;20595;-51
2022/04/15 12:17:11;;;;;;;7.20;6.30;;;20.00;99.00;;;;;;5033782;28;20218;-53
2022/04/15 12:19:37;;;;;;;7.53;6.80;;;19.90;99.30;;;;;;5033411;28;20215;-55
2022/04/15 12:22:04;;;;;;;6.30;5.73;;;19.50;98.20;;;;;;5033036;28;20665;-52
2022/04/15 12:24:30;;;;;;;6.87;6.07;;;19.10;98.20;;;;;;5033530;28;20200;-52
2022/04/15 12:27:00;;;;;;;6.50;5.80;;;18.80;98.70;;;;;;5033592;28;20174;-50
2022/04/15 12:32:17;;;;;;;6.53;5.80;;;18.90;99.90;;;;;;5033581;28;20226;-52
2022/04/15 12:34:49;;;;;;;5.72;4.60;;;19.30;99.90;;;;;;5033602;28;20198;-55
2022/04/15 12:37:34;;;;;;;4.60;4.20;;;20.00;99.90;;;;;;5033197;28;20208;-54
2022/04/15 12:40:20;;;;;;;4.22;3.83;;;21.00;96.80;;;;;;5033296;28;20565;-51